Time;durP1;ratioP1;P1;durP2;ratioP2;P2;SDS_P1;SDS_P2;PMS_P1;PMS_P2;Temp;Humidity;BMP_temperature;BMP_pressure;BME280_temperature;BME280_humidity;BME280_pressure;Samples;Min_cycle;Max_cycle;Signal;HPM_P1;HPM_P2
2023/07/25 00:01:07;;;;;;;1.90;1.40;;;;;;;17.39;99.00;99441.44;5006109;28;20196;-74
2023/07/25 00:03:34;;;;;;;3.00;1.73;;;;;;;17.34;100.00;99438.88;5005353;28;20200;-74
2023/07/25 00:06:02;;;;;;;3.53;1.70;;;;;;;17.38;100.00;99443.22;5008604;28;20222;-74
2023/07/25 00:08:29;;;;;;;2.60;1.50;;;;;;;17.43;99.73;99441.28;5003931;28;20673;-74
2023/07/25 00:10:56;;;;;;;1.60;1.47;;;;;;;17.47;100.00;99442.94;5008178;28;20224;-74
2023/07/25 00:13:22;;;;;;;1.40;1.27;;;;;;;17.44;100.00;99440.38;5006915;28;20204;-74
2023/07/25 00:15:50;;;;;;;1.57;1.40;;;;;;;17.35;100.00;99429.94;5005678;28;20250;-74
2023/07/25 00:18:17;;;;;;;2.27;1.60;;;;;;;17.39;100.00;99431.59;5032845;28;20204;-74
2023/07/25 00:20:46;;;;;;;2.97;1.70;;;;;;;17.35;100.00;99431.75;5004858;28;20242;-74
2023/07/25 00:23:12;;;;;;;3.30;1.73;;;;;;;17.31;100.00;99425.59;5007149;28;20677;-72
2023/07/25 00:25:38;;;;;;;2.50;1.70;;;;;;;17.39;100.00;99425.38;5001548;28;20216;-72
2023/07/25 00:28:05;;;;;;;2.80;1.67;;;;;;;17.33;100.00;99426.44;5003476;28;20664;-74
2023/07/25 00:30:31;;;;;;;2.00;1.60;;;;;;;17.30;98.98;99423.84;5005716;28;20307;-75
2023/07/25 00:32:58;;;;;;;1.40;1.30;;;;;;;17.32;98.19;99427.34;5006929;28;20206;-74
2023/07/25 00:35:24;;;;;;;2.70;2.07;;;;;;;17.31;97.72;99425.59;5007604;28;20573;-75
2023/07/25 00:37:50;;;;;;;2.30;1.67;;;;;;;17.34;97.40;99427.31;5002958;28;20743;-74
2023/07/25 00:40:19;;;;;;;2.40;1.70;;;;;;;17.36;97.44;99422.78;5004483;28;20578;-74
2023/07/25 00:42:46;;;;;;;1.57;1.47;;;;;;;17.52;94.96;99422.28;5003767;28;20197;-74
2023/07/25 00:45:12;;;;;;;2.03;1.70;;;;;;;17.66;92.55;99426.34;5009492;28;20197;-71
2023/07/25 00:47:38;;;;;;;2.43;1.63;;;;;;;17.72;93.46;99419.03;5002010;28;20199;-71
2023/07/25 00:50:05;;;;;;;2.47;1.60;;;;;;;17.81;93.18;99425.91;4999224;28;20204;-74
2023/07/25 00:52:32;;;;;;;3.43;1.90;;;;;;;17.88;91.94;99426.56;5000052;28;20597;-74
2023/07/25 00:54:59;;;;;;;2.10;1.60;;;;;;;17.87;92.69;99428.38;5005373;28;20200;-74
2023/07/25 00:57:25;;;;;;;2.33;1.73;;;;;;;17.86;91.16;99421.25;5007416;28;21417;-74
2023/07/25 00:59:52;;;;;;;2.33;1.70;;;;;;;17.87;91.39;99425.69;5040098;28;20200;-74
2023/07/25 01:02:18;;;;;;;2.57;1.60;;;;;;;17.89;90.77;99420.28;4998416;28;20203;-74
2023/07/25 01:04:44;;;;;;;3.77;1.53;;;;;;;17.88;90.13;99422.09;5009303;28;20279;-74
2023/07/25 01:07:13;;;;;;;2.47;1.60;;;;;;;17.93;89.98;99421.94;5007645;28;20827;-74
2023/07/25 01:09:42;;;;;;;1.73;1.50;;;;;;;17.95;89.11;99412.03;5002263;28;20200;-75
2023/07/25 01:12:09;;;;;;;1.40;1.27;;;;;;;17.93;89.32;99417.44;5007966;28;20230;-74
2023/07/25 01:14:37;;;;;;;2.30;1.50;;;;;;;17.93;89.16;99411.22;5012264;28;20200;-74
2023/07/25 01:17:16;;;;;;;2.40;1.80;;;;;;;17.94;88.73;99426.38;5002281;28;20736;-74
2023/07/25 01:19:45;;;;;;;2.17;1.40;;;;;;;17.98;88.80;99418.19;5008760;28;20200;-72
2023/07/25 01:22:11;;;;;;;1.90;1.70;;;;;;;17.94;88.97;99412.97;5008343;28;20696;-75
2023/07/25 01:24:46;;;;;;;2.87;1.60;;;;;;;17.93;89.16;99413.91;5008440;28;20201;-72
2023/07/25 01:27:16;;;;;;;1.70;1.40;;;;;;;17.93;89.53;99409.41;5004966;28;20243;-74
2023/07/25 01:29:42;;;;;;;1.90;1.67;;;;;;;17.96;89.85;99401.28;5004604;28;20200;-74
2023/07/25 01:32:09;;;;;;;1.70;1.50;;;;;;;17.96;89.74;99414.69;5007394;28;20224;-74
2023/07/25 01:34:36;;;;;;;2.00;1.57;;;;;;;17.91;89.89;99408.59;5004270;28;20192;-73
2023/07/25 01:37:03;;;;;;;1.83;1.40;;;;;;;17.84;91.61;99401.69;5003029;28;20229;-74
2023/07/25 01:39:29;;;;;;;2.97;1.60;;;;;;;17.81;94.27;99409.81;5008509;28;20519;-74
2023/07/25 01:41:56;;;;;;;2.90;1.70;;;;;;;17.72;95.69;99404.75;5007943;28;20200;-74
2023/07/25 01:44:22;;;;;;;2.17;1.60;;;;;;;17.61;96.36;99401.47;5002358;28;20206;-74
2023/07/25 01:46:49;;;;;;;1.50;1.40;;;;;;;17.55;98.10;99402.56;5003386;28;20319;-74
2023/07/25 01:49:15;;;;;;;2.20;1.80;;;;;;;17.56;99.64;99423.03;5004679;28;20200;-74
2023/07/25 01:51:42;;;;;;;2.40;1.70;;;;;;;17.43;99.76;99417.19;5007262;28;20311;-75
2023/07/25 01:54:08;;;;;;;2.47;1.80;;;;;;;17.38;100.00;99419.13;5005149;28;20210;-74
2023/07/25 01:56:34;;;;;;;2.07;1.60;;;;;;;17.27;100.00;99412.34;5006706;28;20716;-70
2023/07/25 01:59:01;;;;;;;2.57;2.00;;;;;;;17.25;100.00;99417.75;5005537;28;20192;-74
2023/07/25 02:01:27;;;;;;;1.90;1.63;;;;;;;17.17;100.00;99409.94;5011460;28;20270;-74
2023/07/25 02:03:54;;;;;;;2.43;1.60;;;;;;;17.06;100.00;99403.16;5009343;28;20211;-71
2023/07/25 02:06:20;;;;;;;2.27;1.80;;;;;;;17.00;100.00;99408.66;5005763;28;20239;-69
2023/07/25 02:08:46;;;;;;;1.90;1.70;;;;;;;16.96;100.00;99407.00;5009762;28;20254;-73
2023/07/25 02:11:13;;;;;;;2.37;1.97;;;;;;;16.90;100.00;99406.25;5010666;28;20216;-72
2023/07/25 02:13:39;;;;;;;3.00;2.03;;;;;;;16.90;100.00;99398.25;5008937;28;20279;-72
2023/07/25 02:16:06;;;;;;;4.03;2.03;;;;;;;16.95;100.00;99405.25;5008574;28;20223;-71
2023/07/25 02:18:32;;;;;;;2.90;2.10;;;;;;;16.98;100.00;99403.38;5004076;28;20283;-72
2023/07/25 02:20:59;;;;;;;2.97;2.60;;;;;;;17.00;100.00;99392.63;5005629;28;20196;-73
2023/07/25 02:23:25;;;;;;;2.93;2.10;;;;;;;17.01;100.00;99397.94;5007756;28;20205;-72
2023/07/25 02:25:52;;;;;;;3.73;2.20;;;;;;;16.95;100.00;99399.91;5007536;28;20216;-73
2023/07/25 02:28:18;;;;;;;3.17;2.20;;;;;;;16.92;100.00;99395.53;5005513;28;20250;-73
2023/07/25 02:30:46;;;;;;;3.77;2.20;;;;;;;16.86;100.00;99393.03;5002430;28;20200;-72
2023/07/25 02:33:13;;;;;;;2.90;2.40;;;;;;;16.85;100.00;99389.47;5001359;28;20666;-73
2023/07/25 02:35:39;;;;;;;3.30;2.40;;;;;;;16.84;100.00;99387.72;5007531;28;20215;-73
2023/07/25 02:38:06;;;;;;;2.50;2.20;;;;;;;16.84;100.00;99392.19;5009529;28;20207;-72
2023/07/25 02:40:32;;;;;;;4.80;3.03;;;;;;;16.89;100.00;99391.13;5003733;28;20954;-72
2023/07/25 02:42:59;;;;;;;2.83;2.50;;;;;;;16.89;100.00;99387.59;5006237;28;20279;-70
2023/07/25 02:45:25;;;;;;;4.07;2.47;;;;;;;16.88;100.00;99386.72;5012676;28;20218;-72
2023/07/25 02:47:52;;;;;;;3.43;2.33;;;;;;;16.87;100.00;99387.63;5004112;28;20230;-72
2023/07/25 02:50:18;;;;;;;2.70;2.40;;;;;;;16.88;100.00;99394.72;5005772;28;21423;-73
2023/07/25 02:52:45;;;;;;;3.90;2.40;;;;;;;16.91;100.00;99389.28;5003006;28;20227;-73
2023/07/25 02:55:11;;;;;;;3.27;2.40;;;;;;;16.88;100.00;99383.16;5005751;28;20200;-73
2023/07/25 02:57:38;;;;;;;3.07;2.53;;;;;;;16.84;100.00;99379.69;5008695;28;20299;-72
2023/07/25 03:00:06;;;;;;;3.60;2.70;;;;;;;16.81;100.00;99371.75;5011008;28;20287;-72
2023/07/25 03:02:33;;;;;;;4.50;2.93;;;;;;;16.81;100.00;99373.53;5005829;28;20204;-73
2023/07/25 03:04:59;;;;;;;3.90;2.77;;;;;;;16.81;100.00;99362.84;5005747;28;20207;-72
2023/07/25 03:07:26;;;;;;;3.10;2.43;;;;;;;16.83;100.00;99361.91;5007007;28;20730;-70
2023/07/25 03:09:52;;;;;;;2.93;2.30;;;;;;;16.83;100.00;99367.25;5009946;28;20200;-73
2023/07/25 03:12:19;;;;;;;3.67;2.43;;;;;;;16.81;100.00;99360.16;5012256;28;20851;-73
2023/07/25 03:14:45;;;;;;;2.87;2.23;;;;;;;16.73;100.00;99363.06;5005252;28;20204;-72
2023/07/25 03:17:11;;;;;;;3.17;2.70;;;;;;;16.59;100.00;99342.03;5039533;28;20323;-72
2023/07/25 03:19:38;;;;;;;6.30;2.70;;;;;;;16.36;100.00;99344.44;5008218;28;20200;-73
2023/07/25 03:22:04;;;;;;;4.33;2.90;;;;;;;16.14;100.00;99359.28;5011040;28;20203;-71
2023/07/25 03:24:31;;;;;;;3.50;2.90;;;;;;;15.96;100.00;99361.50;5003272;28;20196;-71
2023/07/25 03:26:57;;;;;;;5.50;2.90;;;;;;;15.90;100.00;99358.09;5036003;28;20217;-71
2023/07/25 03:29:24;;;;;;;4.10;3.10;;;;;;;15.81;100.00;99353.88;5001705;28;20216;-72
2023/07/25 03:31:50;;;;;;;3.53;3.07;;;;;;;15.57;100.00;99357.09;5004780;28;20228;-72
2023/07/25 03:34:17;;;;;;;4.50;3.10;;;;;;;15.38;100.00;99347.75;5007450;28;20231;-74
2023/07/25 03:36:43;;;;;;;5.23;3.20;;;;;;;15.32;100.00;99344.31;5004342;28;20228;-72
2023/07/25 03:39:09;;;;;;;4.57;3.30;;;;;;;15.31;100.00;99339.03;5009242;28;20200;-72
2023/07/25 03:41:36;;;;;;;4.93;3.60;;;;;;;15.27;100.00;99340.88;5005769;28;20200;-72
2023/07/25 03:44:02;;;;;;;4.43;3.33;;;;;;;15.19;100.00;99332.16;5000654;28;20663;-72
2023/07/25 03:46:29;;;;;;;6.27;3.93;;;;;;;15.23;100.00;99333.00;5006965;28;20603;-73
2023/07/25 03:48:57;;;;;;;5.07;3.93;;;;;;;15.10;100.00;99328.81;5003917;28;20236;-73
2023/07/25 03:51:24;;;;;;;6.23;4.23;;;;;;;15.10;100.00;99326.16;5002368;28;20787;-72
2023/07/25 03:53:50;;;;;;;6.37;4.03;;;;;;;15.16;100.00;99326.88;5006550;28;20216;-72
2023/07/25 03:56:16;;;;;;;5.77;4.00;;;;;;;15.19;100.00;99325.94;5005584;28;20236;-73
2023/07/25 03:58:43;;;;;;;6.30;4.13;;;;;;;15.10;100.00;99312.81;5008022;28;20192;-72
2023/07/25 04:01:09;;;;;;;6.90;4.30;;;;;;;15.10;100.00;99327.03;5006161;28;20656;-70
2023/07/25 04:03:36;;;;;;;7.47;4.73;;;;;;;15.11;100.00;99315.44;5008581;28;20196;-71
2023/07/25 04:06:02;;;;;;;8.63;5.00;;;;;;;15.22;100.00;99313.44;5006121;28;20227;-73
2023/07/25 04:08:29;;;;;;;5.77;4.53;;;;;;;15.24;100.00;99308.06;5002723;28;20782;-71
2023/07/25 04:10:55;;;;;;;7.07;5.10;;;;;;;15.18;100.00;99311.72;5001887;28;20287;-71
2023/07/25 04:13:22;;;;;;;9.60;4.70;;;;;;;15.22;100.00;99302.78;5007653;28;20231;-71
2023/07/25 04:15:48;;;;;;;7.63;4.80;;;;;;;15.13;100.00;99300.28;5006887;28;20227;-72
2023/07/25 04:18:14;;;;;;;7.57;5.10;;;;;;;15.15;100.00;99302.91;5006364;28;20196;-71
2023/07/25 04:20:41;;;;;;;6.70;4.77;;;;;;;15.12;100.00;99298.53;5003478;28;20207;-71
2023/07/25 04:23:07;;;;;;;6.97;4.93;;;;;;;15.11;100.00;99294.13;5007177;28;20200;-71
2023/07/25 04:25:34;;;;;;;8.17;5.50;;;;;;;15.13;100.00;99286.97;5007942;28;20222;-70
2023/07/25 04:28:00;;;;;;;8.50;5.43;;;;;;;15.28;100.00;99291.09;4999743;28;20587;-71
2023/07/25 04:30:27;;;;;;;7.57;5.53;;;;;;;15.30;100.00;99298.13;5008579;28;20739;-71
2023/07/25 04:32:53;;;;;;;7.47;5.53;;;;;;;15.26;100.00;99304.47;5003973;28;20303;-71
2023/07/25 04:35:19;;;;;;;7.07;5.10;;;;;;;15.30;100.00;99300.81;5004676;28;20208;-71
2023/07/25 04:37:46;;;;;;;6.27;4.60;;;;;;;15.34;100.00;99302.47;5044864;23;20318;-68
2023/07/25 04:40:13;;;;;;;7.47;5.37;;;;;;;15.37;100.00;99306.88;5025974;28;20207;-68
2023/07/25 04:42:40;;;;;;;6.47;4.67;;;;;;;15.36;100.00;99305.13;5026084;28;20191;-68
2023/07/25 04:45:07;;;;;;;5.60;5.00;;;;;;;15.43;100.00;99308.50;5024191;28;20203;-68
2023/07/25 04:47:33;;;;;;;8.97;5.27;;;;;;;15.48;100.00;99299.47;5012020;28;20230;-68
2023/07/25 04:50:00;;;;;;;7.97;5.23;;;;;;;15.59;100.00;99301.91;5008931;28;20207;-68
2023/07/25 04:52:26;;;;;;;8.53;6.30;;;;;;;15.61;100.00;99301.00;5008186;28;20238;-68
2023/07/25 04:54:57;;;;;;;7.70;5.73;;;;;;;15.65;100.00;99307.13;5009244;28;20200;-68
2023/07/25 04:57:24;;;;;;;7.77;6.37;;;;;;;15.67;100.00;99307.97;5007567;28;20310;-68
2023/07/25 04:59:51;;;;;;;8.73;6.50;;;;;;;15.68;100.00;99306.19;5011818;28;20468;-68
2023/07/25 05:02:19;;;;;;;10.93;6.47;;;;;;;15.67;100.00;99302.63;5008094;28;20234;-68
2023/07/25 05:04:45;;;;;;;11.40;7.27;;;;;;;15.86;100.00;99308.38;5010276;28;20739;-68
2023/07/25 05:07:13;;;;;;;8.63;6.73;;;;;;;15.78;100.00;99316.56;5009742;28;20310;-69
2023/07/25 05:09:40;;;;;;;14.17;8.53;;;;;;;15.82;100.00;99322.72;5012558;28;20283;-68
2023/07/25 05:12:11;;;;;;;16.27;7.57;;;;;;;15.81;100.00;99323.63;5006084;28;20227;-68
2023/07/25 05:14:38;;;;;;;14.30;8.43;;;;;;;15.82;100.00;99334.28;5003626;28;20580;-68
2023/07/25 05:17:04;;;;;;;13.37;8.73;;;;;;;15.81;100.00;99328.97;5009328;28;20227;-68
2023/07/25 05:19:31;;;;;;;16.93;8.60;;;;;;;15.83;100.00;99335.16;5009078;28;20207;-68
2023/07/25 05:21:57;;;;;;;15.67;8.87;;;;;;;15.83;100.00;99324.47;4999536;28;20219;-69
2023/07/25 05:24:24;;;;;;;14.73;9.90;;;;;;;15.95;100.00;99332.16;5004835;28;20205;-69
2023/07/25 05:26:51;;;;;;;19.73;10.00;;;;;;;15.89;100.00;99338.53;5006737;28;20223;-69
2023/07/25 05:29:17;;;;;;;22.90;11.00;;;;;;;15.86;100.00;99338.63;5005202;28;20672;-70
2023/07/25 05:31:44;;;;;;;19.77;10.17;;;;;;;15.75;100.00;99346.03;5004711;28;20625;-69
2023/07/25 05:34:10;;;;;;;17.13;9.40;;;;;;;15.66;100.00;99363.13;5008583;28;20228;-69
2023/07/25 05:36:36;;;;;;;19.90;10.03;;;;;;;15.58;100.00;99367.75;5005261;28;20242;-69
2023/07/25 05:39:03;;;;;;;16.43;9.27;;;;;;;15.60;100.00;99365.94;5006310;28;20491;-68
2023/07/25 05:41:29;;;;;;;14.30;7.90;;;;;;;15.57;100.00;99362.41;5004492;28;20196;-69
2023/07/25 05:43:56;;;;;;;14.87;8.20;;;;;;;15.52;100.00;99359.88;5005963;28;20270;-69
2023/07/25 05:46:22;;;;;;;15.03;8.20;;;;;;;15.51;100.00;99363.44;5005128;28;20227;-69
2023/07/25 05:48:49;;;;;;;10.90;7.23;;;;;;;15.49;100.00;99365.28;5000710;28;20661;-69
2023/07/25 05:51:16;;;;;;;9.50;6.00;;;;;;;15.42;100.00;99355.66;4996335;28;20366;-70
2023/07/25 05:53:42;;;;;;;10.30;6.03;;;;;;;15.46;100.00;99344.00;5002207;28;20470;-69
2023/07/25 05:56:08;;;;;;;10.30;5.63;;;;;;;15.40;100.00;99343.28;4998695;28;20278;-68
2023/07/25 05:58:35;;;;;;;10.40;6.03;;;;;;;15.42;100.00;99339.66;5001463;28;20216;-69
2023/07/25 06:01:01;;;;;;;9.97;6.33;;;;;;;15.42;100.00;99344.09;5009317;28;20229;-69
2023/07/25 06:03:27;;;;;;;11.80;6.40;;;;;;;15.38;100.00;99348.63;5009443;28;20673;-69
2023/07/25 06:05:54;;;;;;;9.77;7.17;;;;;;;15.32;100.00;99360.34;5010262;28;20208;-69
2023/07/25 06:08:23;;;;;;;11.47;7.47;;;;;;;15.41;100.00;99361.03;5010654;28;20208;-70
2023/07/25 06:10:49;;;;;;;9.10;6.17;;;;;;;15.42;100.00;99358.31;5009934;28;20207;-70
2023/07/25 06:13:15;;;;;;;12.13;7.87;;;;;;;15.32;100.00;99349.66;5006585;28;20254;-70
2023/07/25 06:15:42;;;;;;;10.43;6.90;;;;;;;15.35;100.00;99348.72;5003846;28;20527;-69
2023/07/25 06:18:08;;;;;;;9.43;7.03;;;;;;;15.29;100.00;99343.53;5008813;28;20236;-70
2023/07/25 06:20:35;;;;;;;15.63;10.00;;;;;;;15.33;100.00;99337.19;5008934;28;20196;-70
2023/07/25 06:23:01;;;;;;;15.23;10.10;;;;;;;15.42;100.00;99330.78;5007727;28;20227;-72
2023/07/25 06:25:28;;;;;;;16.63;11.67;;;;;;;15.55;100.00;99326.88;5006577;28;20672;-70
2023/07/25 06:27:55;;;;;;;18.27;11.87;;;;;;;15.60;100.00;99320.56;5008084;28;20227;-70
2023/07/25 06:30:21;;;;;;;20.90;12.90;;;;;;;15.65;100.00;99324.03;5006810;28;21735;-71
2023/07/25 06:32:47;;;;;;;17.27;10.60;;;;;;;15.65;100.00;99324.03;5004115;28;20708;-70
2023/07/25 06:35:14;;;;;;;15.07;10.20;;;;;;;15.64;100.00;99319.59;5006648;28;20613;-71
2023/07/25 06:37:41;;;;;;;15.17;10.70;;;;;;;15.59;100.00;99321.47;5009259;28;20312;-70
2023/07/25 06:40:07;;;;;;;9.97;8.33;;;;;;;15.52;100.00;99322.50;5007325;28;20238;-70
2023/07/25 06:42:34;;;;;;;14.17;10.00;;;;;;;15.49;100.00;99319.91;5010211;28;20197;-71
2023/07/25 06:45:00;;;;;;;21.53;10.20;;;;;;;15.53;100.00;99310.03;5007655;28;20686;-70
2023/07/25 06:47:27;;;;;;;14.40;8.23;;;;;;;15.52;100.00;99313.63;5008903;28;20249;-72
2023/07/25 06:49:53;;;;;;;13.77;8.97;;;;;;;15.46;100.00;99313.78;5009085;28;20283;-72
2023/07/25 06:52:19;;;;;;;12.87;7.60;;;;;;;15.45;100.00;99312.91;5008157;28;20227;-72
2023/07/25 06:54:46;;;;;;;12.60;8.03;;;;;;;15.45;100.00;99302.22;5006379;28;20291;-71
2023/07/25 06:57:12;;;;;;;10.67;7.50;;;;;;;15.50;100.00;99304.78;5006031;28;20228;-71
2023/07/25 06:59:39;;;;;;;11.50;7.47;;;;;;;15.47;100.00;99303.06;5008820;28;20203;-71
2023/07/25 07:02:05;;;;;;;12.70;8.70;;;;;;;15.53;100.00;99307.38;5008261;28;20201;-71
2023/07/25 07:04:32;;;;;;;11.33;7.23;;;;;;;15.53;100.00;99299.38;5006456;28;20192;-70
2023/07/25 07:06:58;;;;;;;9.80;6.60;;;;;;;15.44;100.00;99310.25;5005798;28;20212;-70
2023/07/25 07:09:24;;;;;;;12.73;7.70;;;;;;;15.29;100.00;99300.84;5006076;28;20200;-70
2023/07/25 07:11:51;;;;;;;9.93;7.17;;;;;;;15.11;100.00;99304.78;5007156;28;20274;-71
2023/07/25 07:14:17;;;;;;;10.37;6.73;;;;;;;15.00;100.00;99312.16;5007415;28;20311;-70
2023/07/25 07:16:44;;;;;;;10.17;7.20;;;;;;;14.84;100.00;99314.28;5003499;28;20758;-69
2023/07/25 07:19:10;;;;;;;10.23;7.17;;;;;;;14.54;100.00;99315.78;5003653;28;20653;-69
2023/07/25 07:21:36;;;;;;;10.13;7.20;;;;;;;14.42;100.00;99321.31;5005956;28;20242;-71
2023/07/25 07:24:03;;;;;;;11.10;7.33;;;;;;;14.36;100.00;99324.94;5002777;28;20290;-69
2023/07/25 07:26:30;;;;;;;11.30;7.53;;;;;;;14.31;100.00;99315.31;5006556;28;20697;-68
2023/07/25 07:28:56;;;;;;;13.07;7.97;;;;;;;14.22;100.00;99320.81;5007520;28;20299;-69
2023/07/25 07:31:24;;;;;;;15.77;7.70;;;;;;;14.20;100.00;99314.63;4997536;28;20215;-69
2023/07/25 07:33:52;;;;;;;10.03;7.83;;;;;;;14.17;100.00;99312.91;5002496;28;20235;-70
2023/07/25 07:36:18;;;;;;;12.37;7.27;;;;;;;14.09;100.00;99306.84;5001695;28;20302;-71
2023/07/25 07:38:44;;;;;;;12.20;7.97;;;;;;;14.10;100.00;99314.81;5001911;28;20215;-69
2023/07/25 07:41:11;;;;;;;13.73;7.60;;;;;;;14.13;100.00;99321.84;5002201;28;20741;-70
2023/07/25 07:43:37;;;;;;;11.87;7.00;;;;;;;13.97;100.00;99320.34;5000848;28;20668;-71
2023/07/25 07:46:03;;;;;;;14.20;7.20;;;;;;;13.71;100.00;99320.81;5003143;28;20713;-69
2023/07/25 07:48:30;;;;;;;12.00;7.60;;;;;;;13.71;100.00;99313.72;5002411;28;20204;-70
2023/07/25 07:51:02;;;;;;;12.03;7.77;;;;;;;13.70;100.00;99321.72;5003286;28;20205;-71
2023/07/25 07:53:28;;;;;;;12.60;7.13;;;;;;;13.72;100.00;99307.47;5003357;28;20222;-72
2023/07/25 07:55:54;;;;;;;13.17;7.30;;;;;;;13.65;100.00;99299.63;5004470;28;20204;-72
2023/07/25 07:58:21;;;;;;;12.13;7.50;;;;;;;13.65;100.00;99289.88;4999237;28;20203;-71
2023/07/25 08:00:47;;;;;;;11.67;7.07;;;;;;;13.66;100.00;99290.75;5004804;28;20202;-72
2023/07/25 08:03:13;;;;;;;12.13;6.93;;;;;;;13.68;100.00;99289.81;5006381;28;20215;-72
2023/07/25 08:05:40;;;;;;;12.50;7.20;;;;;;;13.68;100.00;99286.28;5006102;28;20203;-70
2023/07/25 08:08:08;;;;;;;12.13;6.57;;;;;;;13.74;100.00;99280.84;5005253;28;20226;-72
2023/07/25 08:10:34;;;;;;;11.30;6.73;;;;;;;13.72;100.00;99286.19;5009984;28;20622;-69
2023/07/25 08:13:01;;;;;;;11.20;6.40;;;;;;;13.78;100.00;99299.41;5004177;28;20220;-70
2023/07/25 08:15:27;;;;;;;11.10;6.40;;;;;;;13.79;100.00;99305.59;5005411;28;20199;-69
2023/07/25 08:17:56;;;;;;;10.10;6.03;;;;;;;13.82;100.00;99325.94;5001734;28;20522;-69
2023/07/25 08:20:22;;;;;;;9.90;5.90;;;;;;;13.87;100.00;99332.94;5002247;28;20204;-69
2023/07/25 08:22:49;;;;;;;12.67;6.20;;;;;;;13.84;100.00;99332.13;5005422;28;20243;-69
2023/07/25 08:25:15;;;;;;;10.27;6.10;;;;;;;13.97;100.00;99342.53;5001517;28;20259;-68
2023/07/25 08:27:41;;;;;;;13.73;6.60;;;;;;;14.15;100.00;99348.47;5005577;28;20220;-69
2023/07/25 08:30:08;;;;;;;11.73;6.17;;;;;;;14.28;100.00;99353.53;5002195;28;20212;-68
2023/07/25 08:32:34;;;;;;;10.77;5.97;;;;;;;14.49;100.00;99357.63;5003588;28;20211;-69
2023/07/25 08:35:03;;;;;;;11.03;5.90;;;;;;;14.66;100.00;99365.28;4998994;28;20212;-70
2023/07/25 08:37:30;;;;;;;9.83;6.40;;;;;;;14.78;100.00;99359.69;5003657;28;20330;-69
2023/07/25 08:39:59;;;;;;;10.70;6.23;;;;;;;14.85;100.00;99342.69;5005281;28;20215;-69
2023/07/25 08:42:29;;;;;;;12.13;6.40;;;;;;;14.97;100.00;99342.44;5005422;28;22491;-68
2023/07/25 08:44:55;;;;;;;11.33;6.10;;;;;;;14.89;100.00;99339.06;5002777;28;20209;-68
2023/07/25 08:47:27;;;;;;;7.63;5.23;;;;;;;14.85;100.00;99331.16;5005195;28;20216;-69
2023/07/25 08:49:56;;;;;;;8.23;5.67;;;;;;;15.09;100.00;99327.06;5000312;28;20197;-70
2023/07/25 08:52:27;;;;;;;12.63;6.27;;;;;;;15.41;100.00;99321.88;5003692;28;20202;-71
2023/07/25 08:54:54;;;;;;;10.50;5.57;;;;;;;15.63;100.00;99320.50;5003243;28;20286;-71
2023/07/25 08:57:21;;;;;;;7.77;5.73;;;;;;;15.72;100.00;99310.50;5004565;28;20220;-71
2023/07/25 08:59:48;;;;;;;9.47;5.73;;;;;;;15.56;100.00;99308.16;5006519;28;20279;-71
2023/07/25 09:02:16;;;;;;;7.63;5.33;;;;;;;15.18;100.00;99303.72;5005461;28;20663;-71
2023/07/25 09:04:47;;;;;;;7.60;4.57;;;;;;;15.23;100.00;99303.66;4999246;28;20277;-71
2023/07/25 09:07:13;;;;;;;6.87;4.57;;;;;;;15.21;100.00;99303.69;4998970;28;20731;-71
2023/07/25 09:09:40;;;;;;;6.80;4.87;;;;;;;15.20;100.00;99295.69;5002603;28;20291;-71
2023/07/25 09:12:07;;;;;;;8.53;5.30;;;;;;;15.25;100.00;99302.69;4998935;28;20624;-71
2023/07/25 09:14:38;;;;;;;6.97;4.93;;;;;;;15.26;100.00;99274.25;5011413;28;20224;-72
2023/07/25 09:17:06;;;;;;;6.47;4.50;;;;;;;15.36;100.00;99276.66;4999623;28;21109;-70
2023/07/25 09:19:32;;;;;;;7.20;5.33;;;;;;;15.50;100.00;99278.97;5001797;28;20200;-68
2023/07/25 09:22:00;;;;;;;6.43;5.07;;;;;;;15.75;100.00;99289.09;5005516;28;20200;-68
2023/07/25 09:24:37;;;;;;;5.03;4.20;;;;;;;16.10;100.00;99291.72;5003538;28;20193;-69
2023/07/25 09:27:17;;;;;;;5.93;4.60;;;;;;;16.47;100.00;99296.94;5003178;28;20223;-69
2023/07/25 09:29:46;;;;;;;6.40;4.50;;;;;;;16.76;100.00;99293.44;4998704;28;20204;-71
2023/07/25 09:32:22;;;;;;;5.00;4.10;;;;;;;16.88;100.00;99298.44;4997659;28;20295;-71
2023/07/25 09:34:57;;;;;;;3.63;3.30;;;;;;;16.92;100.00;99286.75;5006343;28;20311;-73
2023/07/25 09:37:23;;;;;;;3.77;3.30;;;;;;;17.30;100.00;99287.38;5006954;28;20228;-70
2023/07/25 09:39:50;;;;;;;3.73;2.90;;;;;;;17.43;100.00;99294.06;5005589;28;20192;-71
2023/07/25 09:42:22;;;;;;;3.83;2.83;;;;;;;17.44;100.00;99297.63;5005306;28;20200;-70
2023/07/25 09:44:51;;;;;;;3.67;2.60;;;;;;;17.47;100.00;99303.75;5007929;28;20199;-71
2023/07/25 09:47:23;;;;;;;3.30;2.77;;;;;;;17.61;100.00;99316.72;5004294;28;20223;-72
2023/07/25 09:49:51;;;;;;;2.70;2.30;;;;;;;17.78;100.00;99317.06;4997998;28;20351;-73
2023/07/25 09:52:17;;;;;;;2.47;1.90;;;;;;;18.09;100.00;99321.38;5007363;28;20294;-71
2023/07/25 09:54:44;;;;;;;2.03;1.83;;;;;;;18.25;100.00;99332.44;5004040;28;20224;-71
2023/07/25 09:57:10;;;;;;;2.20;2.00;;;;;;;18.41;100.00;99331.88;5001177;28;20600;-70
2023/07/25 09:59:37;;;;;;;2.30;1.90;;;;;;;18.60;100.00;99325.84;5005808;28;20570;-71
2023/07/25 10:02:04;;;;;;;3.00;1.93;;;;;;;18.97;100.00;99326.25;5006956;28;20203;-69
2023/07/25 10:04:34;;;;;;;1.97;1.77;;;;;;;18.96;100.00;99337.94;5005644;28;20224;-69
2023/07/25 10:07:01;;;;;;;2.40;1.80;;;;;;;19.05;100.00;99339.38;5005837;28;20315;-69
2023/07/25 10:09:31;;;;;;;2.60;1.90;;;;;;;19.15;100.00;99345.28;5007862;28;21423;-69
2023/07/25 10:11:57;;;;;;;2.20;2.00;;;;;;;18.93;100.00;99346.09;5005933;28;20200;-68
2023/07/25 10:14:24;;;;;;;2.23;1.90;;;;;;;18.96;100.00;99348.66;5004847;28;20221;-69
2023/07/25 10:16:51;;;;;;;2.40;2.00;;;;;;;19.29;100.00;99348.31;5007827;28;20216;-72
2023/07/25 10:19:17;;;;;;;2.03;1.83;;;;;;;19.29;100.00;99354.56;5006631;28;20287;-69
2023/07/25 10:21:49;;;;;;;2.03;1.70;;;;;;;19.37;100.00;99365.00;5006960;28;20227;-70
2023/07/25 10:24:17;;;;;;;2.00;1.80;;;;;;;19.12;100.00;99373.09;5005545;28;20199;-70
2023/07/25 10:26:52;;;;;;;2.07;1.87;;;;;;;19.15;100.00;99374.78;5002366;28;20248;-69
2023/07/25 10:29:43;;;;;;;2.00;1.80;;;;;;;19.14;100.00;99378.41;5008135;28;20222;-70
2023/07/25 10:32:22;;;;;;;2.93;1.93;;;;;;;19.67;100.00;99377.28;5005111;28;20200;-70
2023/07/25 10:34:54;;;;;;;3.47;1.87;;;;;;;19.47;100.00;99376.25;5009479;28;20211;-69
2023/07/25 10:37:36;;;;;;;2.30;2.10;;;;;;;19.31;100.00;99378.66;5005512;28;20599;-69
2023/07/25 10:40:03;;;;;;;1.73;1.63;;;;;;;19.17;100.00;99383.66;5002821;28;20678;-69
2023/07/25 10:42:59;;;;;;;3.17;1.80;;;;;;;18.69;100.00;99389.91;5006376;28;20208;-69
2023/07/25 10:45:32;;;;;;;2.10;1.90;;;;;;;18.61;100.00;99397.31;5003516;28;20200;-69
2023/07/25 10:48:02;;;;;;;2.57;1.90;;;;;;;18.59;100.00;99399.19;5006546;28;20220;-69
2023/07/25 10:50:51;;;;;;;2.13;1.93;;;;;;;18.73;100.00;99395.09;5005321;28;20203;-70
2023/07/25 10:53:22;;;;;;;1.77;1.50;;;;;;;19.00;100.00;99400.41;5006022;28;20223;-69
2023/07/25 10:56:03;;;;;;;1.60;1.50;;;;;;;19.04;100.00;99399.34;5009149;28;20314;-70
2023/07/25 10:59:04;;;;;;;1.63;1.50;;;;;;;19.41;100.00;99409.59;5003829;28;20204;-72
2023/07/25 11:01:43;;;;;;;4.33;1.33;;;;;;;19.60;100.00;99409.78;4996988;28;20505;-69
2023/07/25 11:04:30;;;;;;;1.70;1.40;;;;;;;19.87;99.63;99411.38;4992960;28;20227;-72
2023/07/25 11:07:11;;;;;;;1.30;1.20;;;;;;;19.88;93.48;99412.25;4996531;28;20216;-71
2023/07/25 11:09:42;;;;;;;1.30;1.20;;;;;;;20.25;92.18;99417.00;4999560;28;20207;-69
2023/07/25 11:12:11;;;;;;;1.50;1.37;;;;;;;20.26;90.15;99408.00;5001334;28;20204;-68
2023/07/25 11:14:42;;;;;;;2.50;1.40;;;;;;;20.51;89.08;99415.97;5003950;28;20220;-70
2023/07/25 11:17:13;;;;;;;1.40;1.30;;;;;;;20.81;82.79;99405.66;5003066;28;20735;-70
2023/07/25 11:19:40;;;;;;;1.60;1.40;;;;;;;20.80;83.61;99409.28;5006383;28;20687;-70
2023/07/25 11:22:11;;;;;;;1.60;1.50;;;;;;;20.87;80.55;99408.09;4997109;28;20608;-69
2023/07/25 11:24:46;;;;;;;2.97;1.70;;;;;;;21.32;76.94;99421.34;5002655;28;20204;-69
2023/07/25 11:27:14;;;;;;;1.77;1.42;;;;;;;21.36;78.26;99420.25;5004405;28;20212;-69